createdAt,value
2023-03-15T00:04:53.000Z,94.19
2023-03-15T00:09:53.000Z,94.24
2023-03-15T00:14:53.000Z,94.51
2023-03-15T00:19:53.000Z,94.88
2023-03-15T00:24:53.000Z,93.82
2023-03-15T00:29:53.000Z,93.43
2023-03-15T00:34:53.000Z,93.89
2023-03-15T00:39:53.000Z,94.65
2023-03-15T00:44:53.000Z,93.92
2023-03-15T00:49:53.000Z,93.53
2023-03-15T00:54:53.000Z,92.98
2023-03-15T00:59:53.000Z,93.09
2023-03-15T01:04:53.000Z,93.38
2023-03-15T01:09:53.000Z,93.82
2023-03-15T01:14:53.000Z,93.18
2023-03-15T01:19:53.000Z,93.82
2023-03-15T01:24:53.000Z,94.07
2023-03-15T01:29:53.000Z,94.55
2023-03-15T01:34:53.000Z,94.39
2023-03-15T01:39:53.000Z,93.40
2023-03-15T01:44:53.000Z,93.60
2023-03-15T01:50:08.000Z,93.95
2023-03-15T01:54:53.000Z,93.49
2023-03-15T01:59:53.000Z,92.24
2023-03-15T02:04:53.000Z,93.43
2023-03-15T02:09:53.000Z,93.46
2023-03-15T02:14:53.000Z,94.27
2023-03-15T02:19:53.000Z,94.13
2023-03-15T02:24:53.000Z,93.63
2023-03-15T02:29:53.000Z,94.27
2023-03-15T02:34:53.000Z,94.27
2023-03-15T02:39:53.000Z,94.55
2023-03-15T02:44:53.000Z,94.59
2023-03-15T02:49:53.000Z,94.65
2023-03-15T02:54:53.000Z,94.16
2023-03-15T02:59:54.000Z,94.69
2023-03-15T03:04:53.000Z,95.09
2023-03-15T03:09:54.000Z,95.19
2023-03-15T03:14:53.000Z,95.33
2023-03-15T03:19:53.000Z,94.52
2023-03-15T03:24:53.000Z,93.91
2023-03-15T03:29:53.000Z,93.81
2023-03-15T03:34:53.000Z,93.78
2023-03-15T03:39:53.000Z,92.99
2023-03-15T03:44:54.000Z,92.47
2023-03-15T03:49:53.000Z,92.08
2023-03-15T03:54:53.000Z,92.11
2023-03-15T03:59:53.000Z,92.20
2023-03-15T04:04:53.000Z,92.37
2023-03-15T04:09:53.000Z,92.32
2023-03-15T04:14:54.000Z,92.41
2023-03-15T04:19:54.000Z,92.45
2023-03-15T04:24:54.000Z,92.50
2023-03-15T04:29:53.000Z,92.97
2023-03-15T04:34:53.000Z,92.02
2023-03-15T04:39:54.000Z,92.81
2023-03-15T04:44:54.000Z,92.98
2023-03-15T04:49:54.000Z,93.24
2023-03-15T04:54:54.000Z,93.66
2023-03-15T04:59:56.000Z,93.62
2023-03-15T05:04:54.000Z,93.42
2023-03-15T05:09:54.000Z,93.21
2023-03-15T05:14:54.000Z,93.69
2023-03-15T05:19:53.000Z,93.52
2023-03-15T05:24:53.000Z,94.13
2023-03-15T05:29:54.000Z,94.17
2023-03-15T05:34:53.000Z,93.97
2023-03-15T05:39:53.000Z,93.49
2023-03-15T05:44:53.000Z,93.73
2023-03-15T05:49:53.000Z,94.65
2023-03-15T05:54:53.000Z,94.20
2023-03-15T05:59:53.000Z,94.48
2023-03-15T06:04:54.000Z,94.98
2023-03-15T06:09:53.000Z,95.06
2023-03-15T06:14:53.000Z,95.43
2023-03-15T06:19:53.000Z,95.68
2023-03-15T06:24:53.000Z,96.14
2023-03-15T06:29:53.000Z,96.29
2023-03-15T06:34:53.000Z,96.69
2023-03-15T06:39:53.000Z,96.79
2023-03-15T06:44:53.000Z,96.96
2023-03-15T06:49:53.000Z,96.98
2023-03-15T06:54:54.000Z,97.18
2023-03-15T06:59:53.000Z,97.35
2023-03-15T07:04:53.000Z,97.65
2023-03-15T07:09:53.000Z,97.56
2023-03-15T07:14:54.000Z,97.35
2023-03-15T07:19:54.000Z,97.35
2023-03-15T07:24:54.000Z,97.22
2023-03-15T07:29:53.000Z,96.85
2023-03-15T07:34:53.000Z,89.38
2023-03-15T07:39:53.000Z,81.98
2023-03-15T07:44:54.000Z,74.85
2023-03-15T07:49:53.000Z,70.00
2023-03-15T07:54:53.000Z,67.58
2023-03-15T07:59:53.000Z,68.01
2023-03-15T08:04:54.000Z,69.26
2023-03-15T08:09:54.000Z,69.38
2023-03-15T08:14:54.000Z,68.02
2023-03-15T08:19:54.000Z,68.40
2023-03-15T08:24:53.000Z,67.61
2023-03-15T08:29:54.000Z,67.55
2023-03-15T08:34:54.000Z,66.41
2023-03-15T08:39:53.000Z,67.57
2023-03-15T08:44:54.000Z,67.14
2023-03-15T08:49:53.000Z,67.39
2023-03-15T08:54:53.000Z,65.85
2023-03-15T08:59:53.000Z,67.14
2023-03-15T09:04:53.000Z,66.22
2023-03-15T09:09:54.000Z,62.55
2023-03-15T09:14:54.000Z,58.58
2023-03-15T09:19:54.000Z,56.34
2023-03-15T09:25:25.000Z,57.37
2023-03-15T09:30:11.000Z,57.79
2023-03-15T09:34:54.000Z,56.19
2023-03-15T09:39:54.000Z,56.83
2023-03-15T09:44:54.000Z,56.93
2023-03-15T09:49:54.000Z,59.83
2023-03-15T09:54:54.000Z,63.45
2023-03-15T09:59:54.000Z,64.76
2023-03-15T10:04:54.000Z,67.72
2023-03-15T10:09:54.000Z,67.20
2023-03-15T10:14:54.000Z,67.12
2023-03-15T10:19:54.000Z,67.13
2023-03-15T10:25:09.000Z,66.55
2023-03-15T10:29:54.000Z,65.43
2023-03-15T10:34:54.000Z,66.21
2023-03-15T10:39:54.000Z,64.95
2023-03-15T10:44:54.000Z,64.34
2023-03-15T10:49:54.000Z,62.84
2023-03-15T10:54:54.000Z,65.98
2023-03-15T10:59:54.000Z,65.91
2023-03-15T11:04:54.000Z,64.62
2023-03-15T11:09:54.000Z,66.81
2023-03-15T11:14:54.000Z,66.58
2023-03-15T11:19:54.000Z,66.27
2023-03-15T11:24:54.000Z,68.73
2023-03-15T11:29:54.000Z,66.32
2023-03-15T11:34:54.000Z,65.79
2023-03-15T11:39:54.000Z,66.24
2023-03-15T11:44:54.000Z,65.69
2023-03-15T11:49:54.000Z,65.69
2023-03-15T11:54:55.000Z,66.95
2023-03-15T11:59:54.000Z,67.27
2023-03-15T12:04:54.000Z,63.51
2023-03-15T12:09:54.000Z,63.72
2023-03-15T12:14:54.000Z,62.37
2023-03-15T12:19:54.000Z,61.27
2023-03-15T12:24:54.000Z,61.91
2023-03-15T12:29:54.000Z,61.69
2023-03-15T12:34:54.000Z,63.66
2023-03-15T12:39:54.000Z,63.75
2023-03-15T12:44:54.000Z,63.46
2023-03-15T12:49:54.000Z,63.12
2023-03-15T12:54:54.000Z,62.19
2023-03-15T12:59:54.000Z,62.11
2023-03-15T13:04:54.000Z,60.48
2023-03-15T13:09:54.000Z,59.89
2023-03-15T13:14:54.000Z,59.30
2023-03-15T13:19:54.000Z,60.57
2023-03-15T13:24:54.000Z,59.70
2023-03-15T13:29:54.000Z,61.26
2023-03-15T13:34:54.000Z,61.41
2023-03-15T13:39:54.000Z,60.14
2023-03-15T13:44:54.000Z,61.66
2023-03-15T13:49:54.000Z,60.14
2023-03-15T13:54:54.000Z,61.60
2023-03-15T13:59:54.000Z,60.93
2023-03-15T14:04:54.000Z,62.76
2023-03-15T14:09:54.000Z,63.63
2023-03-15T14:14:54.000Z,64.50
2023-03-15T14:19:54.000Z,61.63
2023-03-15T14:24:54.000Z,62.44
2023-03-15T14:29:54.000Z,64.25
2023-03-15T14:34:54.000Z,63.44
2023-03-15T14:39:54.000Z,62.73
2023-03-15T14:44:54.000Z,63.20
2023-03-15T14:49:54.000Z,63.28
2023-03-15T14:54:54.000Z,62.14
2023-03-15T14:59:54.000Z,62.70
2023-03-15T15:04:54.000Z,61.24
2023-03-15T15:09:54.000Z,62.31
2023-03-15T15:14:54.000Z,58.63
2023-03-15T15:19:54.000Z,58.66
2023-03-15T15:24:54.000Z,59.90
2023-03-15T15:29:54.000Z,61.80
2023-03-15T15:34:54.000Z,60.28
2023-03-15T15:39:54.000Z,61.54
2023-03-15T15:44:54.000Z,58.63
2023-03-15T15:49:54.000Z,55.79
2023-03-15T15:54:54.000Z,58.35
2023-03-15T15:59:54.000Z,56.04
2023-03-15T16:04:54.000Z,54.90
2023-03-15T16:09:54.000Z,55.13
2023-03-15T16:14:54.000Z,60.54
2023-03-15T16:19:54.000Z,60.80
2023-03-15T16:24:54.000Z,59.73
2023-03-15T16:29:54.000Z,61.57
2023-03-15T16:34:54.000Z,63.35
2023-03-15T16:39:54.000Z,63.30
2023-03-15T16:44:54.000Z,62.64
2023-03-15T16:49:54.000Z,64.92
2023-03-15T16:54:54.000Z,67.84
2023-03-15T16:59:54.000Z,67.34
2023-03-15T17:04:54.000Z,65.72
2023-03-15T17:09:54.000Z,69.06
2023-03-15T17:14:54.000Z,71.06
2023-03-15T17:19:54.000Z,72.31
2023-03-15T17:24:54.000Z,74.54
2023-03-15T17:29:54.000Z,75.73
2023-03-15T17:34:54.000Z,76.53
2023-03-15T17:39:54.000Z,75.79
2023-03-15T17:44:54.000Z,76.41
2023-03-15T17:49:54.000Z,78.21
2023-03-15T17:54:54.000Z,79.74
2023-03-15T17:59:54.000Z,77.95
2023-03-15T18:04:54.000Z,76.60
2023-03-15T18:09:54.000Z,77.01
2023-03-15T18:14:54.000Z,78.56
2023-03-15T18:19:54.000Z,76.38
2023-03-15T18:24:54.000Z,77.47
2023-03-15T18:29:54.000Z,78.36
2023-03-15T18:34:54.000Z,81.71
2023-03-15T18:39:54.000Z,79.17
2023-03-15T18:44:54.000Z,77.80
2023-03-15T18:49:54.000Z,77.88
2023-03-15T18:54:54.000Z,79.18
2023-03-15T18:59:54.000Z,79.68
2023-03-15T19:04:54.000Z,80.24
2023-03-15T19:09:54.000Z,81.06
2023-03-15T19:14:54.000Z,81.98
2023-03-15T19:19:54.000Z,83.05
2023-03-15T19:24:54.000Z,82.87
2023-03-15T19:29:54.000Z,83.29
2023-03-15T19:34:54.000Z,83.13
2023-03-15T19:39:54.000Z,84.68
2023-03-15T19:44:54.000Z,83.11
2023-03-15T19:49:54.000Z,83.87
2023-03-15T19:54:54.000Z,84.42
2023-03-15T19:59:54.000Z,85.79
2023-03-15T20:04:54.000Z,86.32
2023-03-15T20:09:54.000Z,86.64
2023-03-15T20:14:54.000Z,86.64
2023-03-15T20:19:54.000Z,86.54
2023-03-15T20:24:54.000Z,86.31
2023-03-15T20:29:54.000Z,86.36
2023-03-15T20:34:54.000Z,87.05
2023-03-15T20:39:54.000Z,88.26
2023-03-15T20:44:54.000Z,88.46
2023-03-15T20:49:54.000Z,88.21
2023-03-15T20:54:55.000Z,88.70
2023-03-15T20:59:54.000Z,88.42
2023-03-15T21:04:54.000Z,88.60
2023-03-15T21:09:54.000Z,88.27
2023-03-15T21:14:54.000Z,88.09
2023-03-15T21:19:54.000Z,88.38
2023-03-15T21:24:54.000Z,88.42
2023-03-15T21:29:54.000Z,88.76
2023-03-15T21:34:54.000Z,89.08
2023-03-15T21:39:54.000Z,89.09
2023-03-15T21:44:54.000Z,89.29
2023-03-15T21:49:54.000Z,90.11
2023-03-15T21:54:54.000Z,90.43
2023-03-15T21:59:54.000Z,89.99
2023-03-15T22:04:54.000Z,90.71
2023-03-15T22:09:54.000Z,90.03
2023-03-15T22:14:54.000Z,89.66
2023-03-15T22:19:54.000Z,89.77
2023-03-15T22:24:54.000Z,89.98
2023-03-15T22:29:54.000Z,89.98
2023-03-15T22:34:54.000Z,89.80
2023-03-15T22:39:54.000Z,89.98
2023-03-15T22:44:54.000Z,90.41
2023-03-15T22:49:54.000Z,91.29
2023-03-15T22:54:54.000Z,91.00
2023-03-15T22:59:54.000Z,90.77
2023-03-15T23:04:54.000Z,91.31
2023-03-15T23:09:54.000Z,91.55
2023-03-15T23:14:54.000Z,91.43
2023-03-15T23:19:54.000Z,91.24
2023-03-15T23:24:54.000Z,91.09
2023-03-15T23:29:55.000Z,90.98
2023-03-15T23:34:54.000Z,90.98
2023-03-15T23:39:54.000Z,91.41
2023-03-15T23:44:54.000Z,91.90
2023-03-15T23:49:54.000Z,92.00
2023-03-15T23:54:54.000Z,92.17
2023-03-15T23:59:54.000Z,91.89
